Time;durP1;ratioP1;P1;durP2;ratioP2;P2;SDS_P1;SDS_P2;PMS_P1;PMS_P2;Temp;Humidity;BMP_temperature;BMP_pressure;BME280_temperature;BME280_humidity;BME280_pressure;Samples;Min_cycle;Max_cycle;Signal;HPM_P1;HPM_P2
2021/10/29 00:01:43;;;;;;;28.27;22.42;;;8.90;99.90;;;;;;5019621;28;20065;-65
2021/10/29 00:04:09;;;;;;;29.00;22.50;;;8.90;99.90;;;;;;5013743;28;20179;-65
2021/10/29 00:06:34;;;;;;;29.15;22.73;;;9.00;99.90;;;;;;5023321;28;20490;-65
2021/10/29 00:09:02;;;;;;;28.55;22.60;;;9.00;99.90;;;;;;5008826;28;20049;-65
2021/10/29 00:11:28;;;;;;;29.42;22.77;;;9.00;99.90;;;;;;5022465;28;20428;-65
2021/10/29 00:13:53;;;;;;;28.92;22.02;;;9.00;99.90;;;;;;5013516;28;20041;-65
2021/10/29 00:16:19;;;;;;;27.55;22.60;;;8.90;99.90;;;;;;5022825;28;20034;-65
2021/10/29 00:18:45;;;;;;;28.15;21.33;;;9.00;99.90;;;;;;5011683;28;20188;-66
2021/10/29 00:21:11;;;;;;;26.98;20.98;;;9.00;99.90;;;;;;5023438;28;20053;-66
2021/10/29 00:23:36;;;;;;;26.40;21.48;;;8.90;99.90;;;;;;5016080;28;20349;-66
2021/10/29 00:26:02;;;;;;;30.80;22.52;;;8.90;99.90;;;;;;5017147;28;20045;-65
2021/10/29 00:28:28;;;;;;;30.67;22.33;;;8.90;99.90;;;;;;5018125;28;20474;-65
2021/10/29 00:30:54;;;;;;;27.60;21.35;;;8.90;99.90;;;;;;5015455;28;20072;-66
2021/10/29 00:33:20;;;;;;;26.23;22.00;;;8.90;99.90;;;;;;5014355;28;20030;-66
2021/10/29 00:35:46;;;;;;;28.90;22.08;;;8.90;99.90;;;;;;5019341;28;20041;-65
2021/10/29 00:38:12;;;;;;;29.38;21.60;;;8.90;99.90;;;;;;5018213;28;20034;-66
2021/10/29 00:40:39;;;;;;;29.83;22.25;;;9.00;99.90;;;;;;5012842;28;20064;-65
2021/10/29 00:43:09;;;;;;;25.13;20.75;;;9.00;99.90;;;;;;5019018;28;20049;-65
2021/10/29 00:45:36;;;;;;;30.02;21.95;;;9.00;99.90;;;;;;5015019;28;20509;-65
2021/10/29 00:48:02;;;;;;;29.98;21.52;;;9.00;99.90;;;;;;5016372;28;20046;-66
2021/10/29 00:50:28;;;;;;;26.75;20.40;;;9.00;99.90;;;;;;5018434;28;20046;-66
2021/10/29 00:52:55;;;;;;;25.45;20.80;;;9.10;99.90;;;;;;5025145;28;20029;-65
2021/10/29 00:55:22;;;;;;;27.27;20.58;;;9.10;99.90;;;;;;5020057;28;20038;-65
2021/10/29 00:57:50;;;;;;;27.48;21.23;;;9.10;99.90;;;;;;5024171;28;20354;-65
2021/10/29 01:00:17;;;;;;;27.17;21.95;;;9.10;99.90;;;;;;5015852;28;20096;-65
2021/10/29 01:02:42;;;;;;;25.67;20.25;;;9.00;99.90;;;;;;5023871;28;20050;-66
2021/10/29 01:05:09;;;;;;;27.10;21.00;;;9.00;99.90;;;;;;5015700;28;20036;-66
2021/10/29 01:07:35;;;;;;;23.98;19.50;;;9.00;99.90;;;;;;5022601;28;20072;-66
2021/10/29 01:10:02;;;;;;;28.70;21.13;;;9.00;99.90;;;;;;5023919;28;20283;-65
2021/10/29 01:12:28;;;;;;;27.42;20.42;;;9.10;99.90;;;;;;5017330;28;20065;-65
2021/10/29 01:15:00;;;;;;;27.92;20.67;;;9.00;99.90;;;;;;5000875;28;20037;-65
2021/10/29 01:17:27;;;;;;;28.10;21.25;;;9.00;99.90;;;;;;5016767;28;20056;-65
2021/10/29 01:19:55;;;;;;;28.42;21.73;;;9.00;99.90;;;;;;5025861;28;20041;-65
2021/10/29 01:22:22;;;;;;;27.40;20.88;;;9.00;99.90;;;;;;5015431;28;20071;-65
2021/10/29 01:24:49;;;;;;;23.98;19.20;;;9.00;99.90;;;;;;5020407;28;20045;-66
2021/10/29 01:27:16;;;;;;;27.38;21.27;;;8.90;99.90;;;;;;5020458;28;20109;-66
2021/10/29 01:29:43;;;;;;;26.88;21.02;;;9.00;99.90;;;;;;5020845;28;20033;-65
2021/10/29 01:32:09;;;;;;;25.10;20.88;;;9.00;99.90;;;;;;5017606;28;20136;-66
2021/10/29 01:34:36;;;;;;;24.77;20.52;;;9.00;99.90;;;;;;5024463;28;20037;-65
2021/10/29 01:37:05;;;;;;;26.88;20.67;;;8.90;99.90;;;;;;5016630;28;20401;-66
2021/10/29 01:39:32;;;;;;;27.15;20.83;;;8.90;99.90;;;;;;5022927;28;20084;-66
2021/10/29 01:41:57;;;;;;;25.52;21.13;;;8.80;99.90;;;;;;5014249;28;20659;-65
2021/10/29 01:44:23;;;;;;;27.83;20.42;;;8.80;99.90;;;;;;5019291;28;20116;-65
2021/10/29 01:46:49;;;;;;;25.13;20.50;;;8.80;99.90;;;;;;5019224;28;20041;-65
2021/10/29 01:49:15;;;;;;;23.88;19.75;;;8.80;99.90;;;;;;5025414;28;20385;-65
2021/10/29 01:51:41;;;;;;;28.35;20.80;;;8.80;99.90;;;;;;5023838;28;20049;-65
2021/10/29 01:54:07;;;;;;;26.75;20.13;;;8.80;99.90;;;;;;5015976;28;20409;-65
2021/10/29 01:56:33;;;;;;;28.40;20.40;;;8.80;99.90;;;;;;5016915;28;20085;-65
2021/10/29 01:58:59;;;;;;;25.92;18.98;;;8.80;99.90;;;;;;5010651;28;20100;-66
2021/10/29 02:01:25;;;;;;;26.25;20.58;;;8.80;99.90;;;;;;5024019;28;20108;-66
2021/10/29 02:03:51;;;;;;;25.63;20.05;;;8.70;99.90;;;;;;5015574;28;20049;-66
2021/10/29 02:06:18;;;;;;;26.13;19.58;;;8.80;99.90;;;;;;5024603;28;20030;-66
2021/10/29 02:08:45;;;;;;;27.55;20.73;;;8.70;99.90;;;;;;5013457;28;20038;-66
2021/10/29 02:11:11;;;;;;;24.65;19.38;;;8.80;99.90;;;;;;5024756;28;20025;-66
2021/10/29 02:13:37;;;;;;;22.95;18.50;;;8.80;99.90;;;;;;5015947;28;20050;-66
2021/10/29 02:16:03;;;;;;;25.73;19.48;;;8.80;99.90;;;;;;5021423;28;20419;-66
2021/10/29 02:18:28;;;;;;;25.92;18.85;;;8.80;99.90;;;;;;5012877;28;20041;-65
2021/10/29 02:20:54;;;;;;;28.48;19.90;;;8.80;99.90;;;;;;5036519;28;20086;-66
2021/10/29 02:23:20;;;;;;;25.83;18.35;;;8.80;99.90;;;;;;5030603;28;20064;-66
2021/10/29 02:25:46;;;;;;;23.90;19.02;;;8.80;99.90;;;;;;5034410;28;20025;-69
2021/10/29 02:28:17;;;;;;;22.40;18.55;;;8.90;99.90;;;;;;5027350;28;20045;-66
2021/10/29 02:30:44;;;;;;;25.85;18.88;;;8.90;99.90;;;;;;5024424;28;20133;-66
2021/10/29 02:33:10;;;;;;;24.15;18.92;;;8.90;99.90;;;;;;5022668;28;20406;-66
2021/10/29 02:35:36;;;;;;;25.15;19.23;;;8.90;99.90;;;;;;4999359;28;20049;-66
2021/10/29 02:38:02;;;;;;;20.83;18.23;;;8.80;99.90;;;;;;5025305;28;20037;-66
2021/10/29 02:40:28;;;;;;;24.08;18.85;;;8.90;99.90;;;;;;5010765;28;20065;-66
2021/10/29 02:42:54;;;;;;;23.92;17.67;;;8.80;99.90;;;;;;5018063;28;20050;-66
2021/10/29 02:45:20;;;;;;;21.42;17.45;;;8.90;99.90;;;;;;5020304;28;20037;-66
2021/10/29 02:47:48;;;;;;;26.80;18.63;;;8.90;99.90;;;;;;5025287;28;20053;-66
2021/10/29 02:50:16;;;;;;;22.42;19.00;;;8.90;99.90;;;;;;5013672;28;20478;-66
2021/10/29 02:52:42;;;;;;;22.48;18.08;;;8.80;99.90;;;;;;5024603;28;20110;-66
2021/10/29 02:55:08;;;;;;;23.13;17.88;;;8.80;99.90;;;;;;5018692;28;20037;-66
2021/10/29 02:57:35;;;;;;;21.05;17.52;;;8.80;99.90;;;;;;5015712;28;20490;-66
2021/10/29 03:00:01;;;;;;;23.88;17.83;;;8.80;99.90;;;;;;5012845;28;20498;-66
2021/10/29 03:02:26;;;;;;;23.70;17.95;;;8.80;99.90;;;;;;5027679;28;20046;-66
2021/10/29 03:04:52;;;;;;;23.83;18.10;;;8.80;99.90;;;;;;5022184;28;20036;-66
2021/10/29 03:07:18;;;;;;;30.17;17.85;;;8.80;99.90;;;;;;5021220;28;20474;-66
2021/10/29 03:09:43;;;;;;;22.30;18.25;;;8.80;99.90;;;;;;5017042;28;20053;-66
2021/10/29 03:12:09;;;;;;;22.90;18.27;;;8.80;99.90;;;;;;5017419;28;20107;-66
2021/10/29 03:14:35;;;;;;;21.25;17.60;;;8.80;99.90;;;;;;5019223;28;20042;-66
2021/10/29 03:17:00;;;;;;;23.63;16.70;;;8.80;99.90;;;;;;5014205;28;20090;-66
2021/10/29 03:19:26;;;;;;;25.73;18.52;;;8.80;99.90;;;;;;5021962;28;20139;-66
2021/10/29 03:21:52;;;;;;;21.70;17.67;;;8.80;99.90;;;;;;5013557;28;20041;-66
2021/10/29 03:24:17;;;;;;;22.63;18.52;;;8.80;99.90;;;;;;5019092;28;20078;-66
2021/10/29 03:26:43;;;;;;;22.23;17.70;;;8.80;99.90;;;;;;5013667;28;20065;-66
2021/10/29 03:29:09;;;;;;;25.48;18.15;;;8.80;99.90;;;;;;5023745;28;20355;-66
2021/10/29 03:31:35;;;;;;;23.15;16.98;;;8.90;99.90;;;;;;5009645;28;20053;-66
2021/10/29 03:34:01;;;;;;;22.10;17.35;;;8.90;99.90;;;;;;5019159;28;20030;-66
2021/10/29 03:36:26;;;;;;;25.00;17.75;;;8.90;99.90;;;;;;5018705;28;20509;-66
2021/10/29 03:39:01;;;;;;;25.50;17.98;;;8.90;99.90;;;;;;5017954;28;20096;-66
2021/10/29 03:41:30;;;;;;;22.17;16.95;;;8.90;99.90;;;;;;5014604;28;20121;-66
2021/10/29 03:46:25;;;;;;;20.65;16.70;;;8.90;99.90;;;;;;5013623;28;20045;-66
2021/10/29 03:54:12;;;;;;;20.98;17.08;;;9.00;99.90;;;;;;5016709;28;20055;-65
2021/10/29 03:56:42;;;;;;;25.35;16.75;;;8.90;99.90;;;;;;5017275;28;20050;-66
2021/10/29 03:59:10;;;;;;;21.73;17.70;;;9.00;99.90;;;;;;5016749;28;20038;-66
2021/10/29 04:01:36;;;;;;;21.73;16.48;;;9.00;99.90;;;;;;5016190;28;20061;-65
2021/10/29 04:04:02;;;;;;;22.20;16.55;;;9.00;99.90;;;;;;5009398;28;20030;-66
2021/10/29 04:06:28;;;;;;;23.85;16.20;;;9.10;99.90;;;;;;5013741;28;20038;-66
2021/10/29 04:08:54;;;;;;;21.80;17.67;;;9.00;99.90;;;;;;5008462;28;20056;-66
2021/10/29 04:11:26;;;;;;;20.50;16.95;;;9.10;99.90;;;;;;5018077;28;20481;-66
2021/10/29 04:13:51;;;;;;;24.35;17.05;;;9.10;99.90;;;;;;5016716;28;20045;-67
2021/10/29 04:16:19;;;;;;;20.73;16.88;;;9.10;99.90;;;;;;5014308;28;20040;-66
2021/10/29 04:18:45;;;;;;;25.17;17.20;;;9.10;99.90;;;;;;5015853;28;20029;-66
2021/10/29 04:21:10;;;;;;;21.83;17.02;;;9.10;99.90;;;;;;5023157;28;20031;-66
2021/10/29 04:23:36;;;;;;;24.38;16.65;;;9.10;99.90;;;;;;5015726;28;20385;-66
2021/10/29 04:26:02;;;;;;;21.27;16.60;;;9.10;99.90;;;;;;5014826;28;20046;-66
2021/10/29 04:28:28;;;;;;;20.02;16.00;;;9.10;99.90;;;;;;5006463;28;20490;-66
2021/10/29 04:30:56;;;;;;;23.48;17.00;;;9.10;99.90;;;;;;5019612;28;20104;-66
2021/10/29 04:33:22;;;;;;;24.88;16.63;;;9.10;99.90;;;;;;5016002;28;20464;-66
2021/10/29 04:35:51;;;;;;;22.70;16.70;;;9.10;99.90;;;;;;5013589;28;20133;-66
2021/10/29 04:38:17;;;;;;;21.23;16.23;;;9.10;99.90;;;;;;5016789;28;20037;-66
2021/10/29 04:40:43;;;;;;;19.13;15.73;;;9.10;99.90;;;;;;5015956;28;20037;-66
2021/10/29 04:43:10;;;;;;;19.52;15.43;;;9.10;99.90;;;;;;5021882;28;20439;-66
2021/10/29 04:45:37;;;;;;;21.85;16.58;;;9.20;99.90;;;;;;5014897;28;20076;-66
2021/10/29 04:48:04;;;;;;;21.27;15.60;;;9.20;99.90;;;;;;5020572;28;20081;-66
2021/10/29 04:50:30;;;;;;;20.15;15.45;;;9.20;99.90;;;;;;5007280;28;20049;-66
2021/10/29 04:52:56;;;;;;;19.20;15.70;;;9.20;99.90;;;;;;5018634;28;20401;-66
2021/10/29 04:55:22;;;;;;;22.80;15.00;;;9.20;99.90;;;;;;5011501;28;20038;-66
2021/10/29 04:57:48;;;;;;;21.83;14.45;;;9.30;99.90;;;;;;5031222;28;20037;-66
2021/10/29 05:00:14;;;;;;;20.02;15.07;;;9.30;99.90;;;;;;5010006;28;20129;-66
2021/10/29 05:02:40;;;;;;;22.10;16.00;;;9.30;99.90;;;;;;5014311;28;20042;-66
2021/10/29 05:05:08;;;;;;;20.50;14.95;;;9.30;99.90;;;;;;5010774;28;20121;-66
2021/10/29 05:07:34;;;;;;;20.58;15.60;;;9.30;99.90;;;;;;5014883;28;20038;-66
2021/10/29 05:10:01;;;;;;;17.90;14.48;;;9.20;99.90;;;;;;5017428;28;20509;-65
2021/10/29 05:12:26;;;;;;;19.15;15.38;;;9.20;99.90;;;;;;5013293;28;20509;-66
2021/10/29 05:14:54;;;;;;;19.90;14.75;;;9.20;99.90;;;;;;5010435;28;20037;-66
2021/10/29 05:17:20;;;;;;;18.38;14.30;;;9.20;99.90;;;;;;5015848;28;20370;-66
2021/10/29 05:19:46;;;;;;;17.63;14.52;;;9.20;99.90;;;;;;5014324;28;20053;-66
2021/10/29 05:22:12;;;;;;;18.67;14.10;;;9.20;99.90;;;;;;5009420;28;20042;-66
2021/10/29 05:24:38;;;;;;;17.67;14.00;;;9.20;99.90;;;;;;5015313;28;20043;-66
2021/10/29 05:27:04;;;;;;;16.48;14.40;;;9.30;99.90;;;;;;5007529;28;20057;-66
2021/10/29 05:29:30;;;;;;;19.05;14.30;;;9.20;99.90;;;;;;5016678;28;20037;-66
2021/10/29 05:32:01;;;;;;;20.33;14.50;;;9.30;99.90;;;;;;5010538;28;20050;-66
2021/10/29 05:34:27;;;;;;;23.75;14.77;;;9.30;99.90;;;;;;5015061;28;20077;-66
2021/10/29 05:36:55;;;;;;;20.67;13.75;;;9.30;99.90;;;;;;5010752;28;20034;-66
2021/10/29 05:39:21;;;;;;;18.73;14.25;;;9.30;99.90;;;;;;5015392;28;20038;-66
2021/10/29 05:41:48;;;;;;;17.23;13.93;;;9.30;99.90;;;;;;5016520;28;20061;-66
2021/10/29 05:44:18;;;;;;;18.75;13.35;;;9.30;99.90;;;;;;5019046;28;20045;-66
2021/10/29 05:46:46;;;;;;;17.60;13.68;;;9.30;99.90;;;;;;5010359;28;20465;-66
2021/10/29 05:49:13;;;;;;;18.17;14.68;;;9.40;99.90;;;;;;5018549;28;20072;-66
2021/10/29 05:51:50;;;;;;;22.25;14.32;;;9.30;99.90;;;;;;5014689;28;20090;-66
2021/10/29 05:57:04;;;;;;;15.23;12.40;;;9.40;99.90;;;;;;5020581;28;20195;-66
2021/10/29 05:59:34;;;;;;;15.48;12.95;;;9.50;99.90;;;;;;5018212;28;20655;-66
2021/10/29 06:02:00;;;;;;;15.68;12.57;;;9.50;99.90;;;;;;5013249;28;20128;-66
2021/10/29 06:04:26;;;;;;;18.25;13.23;;;9.40;99.90;;;;;;5025771;28;20069;-66
2021/10/29 06:06:53;;;;;;;19.33;13.30;;;9.50;99.90;;;;;;5012225;28;20049;-66
2021/10/29 06:09:19;;;;;;;17.73;12.98;;;9.50;99.90;;;;;;5016852;28;20378;-66
2021/10/29 06:11:45;;;;;;;18.05;14.10;;;9.50;99.90;;;;;;5018320;28;20116;-66
2021/10/29 06:14:10;;;;;;;16.60;13.15;;;9.60;99.90;;;;;;5018461;28;20467;-65
2021/10/29 06:16:36;;;;;;;15.45;12.63;;;9.60;99.90;;;;;;5017982;28;20049;-65
2021/10/29 06:19:03;;;;;;;14.48;12.23;;;9.60;99.90;;;;;;5014750;28;20045;-65
2021/10/29 06:21:56;;;;;;;19.67;12.98;;;9.60;99.90;;;;;;5013379;28;20045;-65
2021/10/29 06:24:16;;;;;;;15.90;12.02;;;9.60;99.90;;;;;;5012556;28;20125;-65
2021/10/29 06:26:50;;;;;;;19.60;12.35;;;9.60;99.90;;;;;;5013168;28;20577;-65
2021/10/29 06:29:16;;;;;;;15.50;12.02;;;9.70;99.90;;;;;;5016142;28;20048;-66
2021/10/29 06:31:42;;;;;;;15.15;12.07;;;9.70;99.90;;;;;;5026625;28;20128;-65
2021/10/29 06:34:10;;;;;;;19.83;12.38;;;9.60;99.90;;;;;;5012900;28;20042;-66
2021/10/29 06:36:36;;;;;;;13.35;12.02;;;9.70;99.90;;;;;;5018114;28;20049;-65
2021/10/29 06:39:03;;;;;;;16.80;12.23;;;9.70;99.90;;;;;;5014799;28;20124;-65
2021/10/29 06:41:29;;;;;;;16.90;11.68;;;9.80;99.90;;;;;;5025206;28;20116;-65
2021/10/29 07:00:10;;;;;;;13.82;11.25;;;10.00;99.90;;;;;;5010202;28;20104;-64
2021/10/29 07:03:07;;;;;;;15.85;10.82;;;10.00;99.90;;;;;;5021464;28;20081;-65
2021/10/29 07:40:42;;;;;;;13.30;8.93;;;13.20;99.90;;;;;;5013613;28;19931;-65
2021/10/29 07:43:10;;;;;;;11.82;9.00;;;13.90;99.90;;;;;;5019195;28;20431;-65
2021/10/29 07:45:36;;;;;;;12.75;9.15;;;14.40;99.90;;;;;;5014422;28;20048;-65
2021/10/29 07:48:02;;;;;;;11.57;9.77;;;14.80;99.90;;;;;;5022254;28;20338;-65
2021/10/29 07:50:28;;;;;;;12.38;9.25;;;15.10;99.90;;;;;;5019673;28;20554;-65
2021/10/29 07:52:57;;;;;;;13.05;9.13;;;15.10;99.90;;;;;;5015517;28;20470;-65
2021/10/29 07:55:24;;;;;;;11.65;9.20;;;14.80;99.90;;;;;;5017985;28;20140;-65
2021/10/29 07:57:51;;;;;;;12.07;9.07;;;14.60;99.60;;;;;;5008230;28;20053;-65
2021/10/29 08:00:19;;;;;;;9.70;8.63;;;14.40;99.90;;;;;;5018904;28;20037;-65
2021/10/29 08:02:47;;;;;;;11.23;8.55;;;14.60;99.90;;;;;;5016817;28;20693;-65
2021/10/29 08:05:14;;;;;;;11.52;9.25;;;14.80;99.50;;;;;;5021759;28;20053;-65
2021/10/29 08:07:40;;;;;;;9.77;8.35;;;15.10;99.50;;;;;;5017041;28;20049;-65
2021/10/29 08:10:09;;;;;;;10.18;8.40;;;15.40;98.60;;;;;;5022263;28;20042;-65
2021/10/29 08:12:35;;;;;;;11.93;8.52;;;15.60;98.20;;;;;;5012379;28;20049;-65
2021/10/29 08:15:03;;;;;;;11.18;8.55;;;15.80;97.40;;;;;;5021017;28;20041;-65
2021/10/29 08:17:32;;;;;;;10.93;8.13;;;16.00;96.80;;;;;;5018928;28;20033;-65
2021/10/29 08:19:58;;;;;;;14.52;9.50;;;16.10;96.10;;;;;;5020528;28;20040;-65
2021/10/29 08:22:24;;;;;;;9.30;7.93;;;16.40;95.50;;;;;;5013531;28;20030;-65
2021/10/29 08:24:50;;;;;;;10.43;8.23;;;16.50;94.70;;;;;;5012792;28;20061;-65
2021/10/29 08:27:15;;;;;;;10.02;8.80;;;16.70;94.30;;;;;;5008071;28;20061;-65
2021/10/29 08:29:41;;;;;;;11.55;8.00;;;16.90;94.00;;;;;;5013771;28;20042;-65
2021/10/29 08:32:08;;;;;;;12.50;8.80;;;17.10;93.30;;;;;;5022256;28;20041;-65
2021/10/29 08:34:34;;;;;;;12.65;8.90;;;17.40;92.50;;;;;;5012272;28;20049;-65
2021/10/29 08:37:01;;;;;;;11.52;8.38;;;17.50;91.70;;;;;;5020365;28;20034;-65
2021/10/29 08:39:31;;;;;;;11.48;8.43;;;17.70;91.60;;;;;;5019290;28;20045;-65
2021/10/29 08:41:58;;;;;;;9.45;7.78;;;17.80;90.90;;;;;;5021172;28;20045;-65
2021/10/29 08:44:24;;;;;;;11.07;8.40;;;17.90;89.70;;;;;;5011869;28;20342;-65
2021/10/29 08:46:50;;;;;;;10.85;8.07;;;18.00;88.10;;;;;;5014857;28;20144;-66
2021/10/29 08:49:16;;;;;;;9.10;7.65;;;18.10;87.80;;;;;;5008295;28;20053;-65
2021/10/29 08:51:42;;;;;;;10.38;7.45;;;18.30;88.50;;;;;;5017577;28;20096;-65
2021/10/29 08:54:09;;;;;;;7.90;6.93;;;18.50;87.90;;;;;;5010853;28;20120;-65
2021/10/29 08:56:35;;;;;;;10.70;7.93;;;18.70;86.00;;;;;;5021259;28;20061;-65
2021/10/29 08:59:14;;;;;;;11.75;7.32;;;18.90;84.10;;;;;;5016872;28;20046;-65
2021/10/29 09:01:58;;;;;;;8.75;7.63;;;19.00;83.20;;;;;;5023286;28;20128;-65
2021/10/29 09:32:40;;;;;;;11.70;7.00;;;18.70;78.80;;;;;;5016331;28;20096;-65
2021/10/29 09:35:13;;;;;;;9.13;6.25;;;18.90;80.00;;;;;;5014367;28;20073;-65
2021/10/29 09:37:55;;;;;;;9.60;7.07;;;19.10;76.70;;;;;;5027158;28;20049;-65
2021/10/29 09:40:21;;;;;;;10.73;6.30;;;19.10;75.70;;;;;;5016506;28;20041;-65
2021/10/29 09:42:49;;;;;;;9.20;6.93;;;19.30;76.20;;;;;;5020470;28;20025;-65
2021/10/29 09:45:24;;;;;;;10.45;6.97;;;19.60;77.10;;;;;;5018809;28;20049;-65
2021/10/29 09:48:09;;;;;;;11.07;7.07;;;19.80;76.10;;;;;;5027905;28;20060;-65
2021/10/29 09:50:46;;;;;;;9.13;6.43;;;20.00;75.50;;;;;;5018479;28;20057;-65
2021/10/29 09:53:22;;;;;;;8.05;6.75;;;19.90;74.10;;;;;;5019083;28;20047;-65
2021/10/29 09:55:55;;;;;;;11.30;6.78;;;19.70;74.40;;;;;;5017418;28;20042;-65
2021/10/29 09:58:23;;;;;;;9.75;7.05;;;19.30;75.30;;;;;;5018194;28;20041;-65
2021/10/29 10:00:50;;;;;;;8.77;6.38;;;18.80;75.20;;;;;;5015785;28;20064;-65
2021/10/29 10:03:19;;;;;;;11.13;6.80;;;18.30;76.80;;;;;;5018136;28;20041;-65
2021/10/29 10:05:45;;;;;;;10.35;6.85;;;17.90;78.00;;;;;;5021785;28;20045;-65
2021/10/29 10:08:11;;;;;;;14.13;7.55;;;17.50;78.90;;;;;;5013319;28;20319;-65
2021/10/29 10:10:39;;;;;;;11.88;6.90;;;17.30;80.20;;;;;;5026355;28;20105;-65
2021/10/29 10:13:05;;;;;;;12.77;7.50;;;17.30;80.40;;;;;;5016383;28;20064;-65
2021/10/29 10:15:33;;;;;;;9.63;7.43;;;17.50;81.60;;;;;;5017437;28;20041;-65
2021/10/29 10:17:59;;;;;;;8.85;6.88;;;18.10;80.30;;;;;;5013181;28;20053;-65
2021/10/29 10:20:25;;;;;;;8.57;7.13;;;18.60;79.30;;;;;;5017364;28;20045;-65
2021/10/29 10:22:51;;;;;;;8.80;6.50;;;19.10;77.70;;;;;;5010394;28;20486;-65
2021/10/29 10:42:25;;;;;;;6.50;5.68;;;19.30;76.10;;;;;;4986422;28;20121;-65
2021/10/29 10:45:06;;;;;;;7.10;5.63;;;19.30;76.90;;;;;;5015703;28;20140;-65
2021/10/29 10:47:36;;;;;;;7.55;5.57;;;19.80;75.70;;;;;;5013097;28;20046;-65
2021/10/29 10:50:10;;;;;;;6.90;5.85;;;20.30;73.30;;;;;;5019887;28;20108;-65
2021/10/29 10:53:09;;;;;;;6.95;5.38;;;20.60;72.00;;;;;;5016128;28;20044;-65
2021/10/29 10:59:27;;;;;;;7.18;5.40;;;21.20;68.40;;;;;;5010978;28;20597;-65
2021/10/29 11:13:01;;;;;;;6.22;4.95;;;20.60;68.40;;;;;;5022894;28;20045;-65
2021/10/29 11:15:28;;;;;;;7.82;4.65;;;19.60;70.10;;;;;;5007018;28;20053;-65
2021/10/29 11:18:00;;;;;;;7.55;4.82;;;18.90;72.70;;;;;;5022111;28;20121;-65
2021/10/29 11:20:39;;;;;;;7.03;4.85;;;18.40;73.40;;;;;;5015475;28;20048;-65
2021/10/29 11:23:09;;;;;;;10.75;4.47;;;18.00;75.50;;;;;;5021213;28;20513;-65
2021/10/29 11:26:17;;;;;;;7.07;5.03;;;17.70;76.50;;;;;;5018529;28;20053;-65
2021/10/29 11:28:47;;;;;;;7.20;4.32;;;17.50;77.20;;;;;;5016878;28;20049;-65
2021/10/29 11:31:15;;;;;;;8.13;4.82;;;17.30;78.80;;;;;;5016313;28;20038;-65
2021/10/29 11:33:46;;;;;;;7.00;5.20;;;17.10;78.80;;;;;;5016784;28;20111;-65
2021/10/29 11:36:27;;;;;;;8.35;4.88;;;17.00;79.70;;;;;;5015218;28;20084;-65
2021/10/29 11:38:54;;;;;;;7.65;5.25;;;17.00;80.60;;;;;;5020922;28;20513;-65
2021/10/29 11:41:24;;;;;;;9.98;5.30;;;16.80;81.10;;;;;;5015108;28;20084;-65
2021/10/29 11:43:51;;;;;;;8.27;5.10;;;16.80;80.60;;;;;;5022078;28;20041;-65
2021/10/29 11:46:22;;;;;;;6.32;4.97;;;16.80;80.60;;;;;;5012007;28;20108;-65
2021/10/29 11:48:51;;;;;;;7.28;5.10;;;16.80;81.40;;;;;;5015914;28;20489;-65
2021/10/29 11:51:18;;;;;;;9.68;5.65;;;16.80;81.70;;;;;;5016550;28;20034;-65
2021/10/29 12:07:25;;;;;;;7.22;5.20;;;16.70;82.90;;;;;;5013625;28;20172;-65
2021/10/29 12:10:06;;;;;;;6.72;5.15;;;16.60;82.80;;;;;;5015608;28;20084;-65
2021/10/29 12:12:34;;;;;;;8.18;4.93;;;16.60;83.30;;;;;;5014471;28;20077;-65
2021/10/29 12:15:25;;;;;;;10.75;4.78;;;16.60;83.60;;;;;;5015121;28;20116;-65
2021/10/29 12:18:11;;;;;;;7.72;4.60;;;16.50;83.40;;;;;;5007196;28;20045;-65
2021/10/29 12:20:41;;;;;;;7.13;4.90;;;16.50;84.10;;;;;;5025045;28;20405;-65
2021/10/29 12:23:14;;;;;;;8.45;4.75;;;16.50;83.80;;;;;;5011818;28;20113;-65
2021/10/29 12:28:18;;;;;;;5.47;4.60;;;16.50;84.70;;;;;;5011012;28;20110;-65
2021/10/29 13:02:02;;;;;;;8.40;4.30;;;16.40;85.20;;;;;;5024498;28;20524;-66
2021/10/29 13:04:37;;;;;;;;;;;16.30;85.00;;;;;;5020164;28;20041;-65
2021/10/29 13:07:05;;;;;;;7.32;4.53;;;16.30;85.40;;;;;;5023144;28;19960;-65
2021/10/29 13:09:34;;;;;;;8.10;4.88;;;16.20;85.40;;;;;;5019258;28;20045;-65
2021/10/29 13:12:07;;;;;;;13.27;5.07;;;16.20;86.50;;;;;;5023819;28;20057;-65
2021/10/29 13:14:36;;;;;;;8.80;4.43;;;16.20;86.20;;;;;;5020182;28;20048;-65
2021/10/29 13:17:05;;;;;;;6.90;4.15;;;16.30;85.70;;;;;;5020585;28;20050;-65
2021/10/29 13:38:23;;;;;;;9.73;3.92;;;15.90;86.80;;;;;;5023525;28;20120;-65
2021/10/29 14:30:00;;;;;;;6.50;2.85;;;16.20;87.20;;;;;;5018077;28;20068;-65
2021/10/29 14:33:15;;;;;;;4.82;2.97;;;16.20;86.40;;;;;;5013552;28;20493;-65
2021/10/29 14:35:36;;;;;;;7.35;2.97;;;16.10;86.50;;;;;;5014345;28;20048;-65
2021/10/29 14:38:15;;;;;;;4.47;2.63;;;16.10;86.30;;;;;;5014251;28;20050;-65
2021/10/29 14:41:04;;;;;;;6.32;2.85;;;16.00;86.00;;;;;;5018686;28;20124;-65
2021/10/29 14:43:39;;;;;;;5.38;2.30;;;16.00;86.10;;;;;;5011483;28;20075;-65
2021/10/29 14:51:36;;;;;;;6.03;2.60;;;15.80;86.60;;;;;;5027071;28;20045;-66
2021/10/29 15:05:00;;;;;;;6.80;2.95;;;15.50;87.80;;;;;;5016419;28;20041;-66
2021/10/29 15:26:58;;;;;;;5.80;3.00;;;15.20;89.30;;;;;;5020792;28;20052;-66
2021/10/29 15:29:31;;;;;;;6.38;3.40;;;15.10;89.60;;;;;;5016023;28;20494;-65
2021/10/29 15:45:48;;;;;;;7.73;3.00;;;14.70;90.60;;;;;;5109831;28;20074;-64
2021/10/29 15:48:22;;;;;;;6.70;3.72;;;14.70;90.70;;;;;;5115719;28;20047;-65
2021/10/29 15:50:48;;;;;;;4.93;3.63;;;14.70;90.80;;;;;;5092987;28;20052;-65
2021/10/29 15:53:14;;;;;;;8.02;3.53;;;14.60;90.90;;;;;;5111467;28;20119;-65
2021/10/29 15:55:48;;;;;;;5.75;3.50;;;14.50;91.10;;;;;;5099767;28;20495;-65
2021/10/29 16:17:45;;;;;;;5.88;3.40;;;14.10;92.40;;;;;;5104109;28;20043;-65
2021/10/29 16:20:11;;;;;;;6.75;3.28;;;14.00;92.50;;;;;;5105640;28;20051;-65
2021/10/29 16:22:37;;;;;;;7.00;3.88;;;14.00;92.70;;;;;;5063791;28;20054;-65
2021/10/29 16:27:45;;;;;;;5.78;2.92;;;14.00;92.80;;;;;;5075733;28;20092;-65
2021/10/29 16:30:11;;;;;;;7.60;3.72;;;14.00;92.90;;;;;;5102820;28;20059;-65
2021/10/29 16:35:21;;;;;;;6.57;3.58;;;13.90;93.10;;;;;;5102502;28;20048;-65
2021/10/29 16:37:47;;;;;;;4.72;3.58;;;13.90;93.10;;;;;;5097532;28;20027;-65
2021/10/29 16:40:15;;;;;;;6.13;3.40;;;14.00;93.20;;;;;;5069090;28;20407;-65
2021/10/29 16:42:41;;;;;;;5.20;3.63;;;14.00;93.30;;;;;;5083182;28;20036;-65
2021/10/29 16:45:08;;;;;;;5.72;3.90;;;14.00;93.30;;;;;;5069424;28;20052;-65
2021/10/29 16:47:35;;;;;;;5.65;3.30;;;14.00;93.30;;;;;;5078923;28;20047;-65
2021/10/29 16:50:05;;;;;;;6.85;3.22;;;14.00;93.30;;;;;;5087383;28;20055;-65
2021/10/29 16:52:31;;;;;;;5.22;4.13;;;14.00;93.30;;;;;;5077926;28;20424;-65
2021/10/29 16:54:57;;;;;;;6.72;3.30;;;14.10;93.70;;;;;;5091169;28;20399;-65
2021/10/29 16:57:23;;;;;;;5.53;3.90;;;14.10;93.40;;;;;;5082085;28;20026;-65
2021/10/29 16:59:49;;;;;;;5.75;3.88;;;14.10;93.50;;;;;;5088648;28;20492;-65
2021/10/29 17:02:15;;;;;;;5.35;3.20;;;14.10;93.50;;;;;;5076778;28;20044;-65
2021/10/29 17:04:41;;;;;;;4.70;3.05;;;14.10;93.60;;;;;;5087245;28;20032;-65
2021/10/29 17:07:09;;;;;;;6.47;3.33;;;14.10;93.60;;;;;;5088104;28;20031;-65
2021/10/29 17:09:35;;;;;;;4.88;3.50;;;14.20;93.70;;;;;;5088493;28;20028;-65
2021/10/29 17:12:01;;;;;;;5.28;3.72;;;14.10;93.60;;;;;;5085310;28;20468;-65
2021/10/29 17:14:27;;;;;;;5.53;3.08;;;14.20;93.70;;;;;;5083825;28;20118;-65
2021/10/29 17:16:56;;;;;;;4.75;3.25;;;14.20;93.70;;;;;;5069614;28;20577;-65
2021/10/29 17:19:22;;;;;;;5.18;3.08;;;14.20;93.70;;;;;;5080076;28;20215;-65
2021/10/29 17:21:48;;;;;;;7.82;3.88;;;14.30;93.70;;;;;;5089927;28;20040;-65
2021/10/29 17:24:14;;;;;;;6.80;3.45;;;14.30;94.20;;;;;;5077667;28;20044;-65
2021/10/29 17:26:40;;;;;;;6.10;3.47;;;14.30;93.80;;;;;;5085672;28;20040;-65
2021/10/29 17:29:06;;;;;;;7.30;3.47;;;14.40;93.70;;;;;;5082092;28;20051;-65
2021/10/29 17:31:32;;;;;;;5.03;3.00;;;14.50;93.50;;;;;;5085574;28;20044;-65
2021/10/29 17:33:57;;;;;;;6.78;3.80;;;14.50;93.30;;;;;;5082460;28;20030;-65
2021/10/29 17:36:25;;;;;;;5.75;3.50;;;14.60;93.30;;;;;;5088116;28;20040;-65
2021/10/29 17:38:50;;;;;;;5.63;3.60;;;14.60;93.40;;;;;;5081795;28;20035;-65
2021/10/29 17:41:16;;;;;;;5.03;3.53;;;14.60;93.40;;;;;;5084538;28;20032;-65
2021/10/29 17:43:42;;;;;;;5.78;3.55;;;14.50;93.50;;;;;;5060728;28;20075;-65
2021/10/29 17:46:08;;;;;;;5.53;3.22;;;14.60;93.60;;;;;;5069752;28;20044;-65
2021/10/29 17:48:33;;;;;;;4.97;3.80;;;14.60;93.60;;;;;;5084667;28;20130;-65
2021/10/29 17:50:59;;;;;;;6.35;4.47;;;14.70;93.50;;;;;;5080517;28;20036;-65
2021/10/29 17:53:30;;;;;;;9.90;4.03;;;14.70;93.60;;;;;;5087573;28;20046;-65
2021/10/29 17:55:57;;;;;;;7.60;4.07;;;14.80;93.70;;;;;;5083307;28;20127;-65
2021/10/29 17:58:23;;;;;;;5.03;3.78;;;14.80;93.90;;;;;;5084671;28;20515;-65